createdAt,value
2022-11-29T00:04:46.109Z,12.77
2022-11-29T00:09:47.993Z,18.05
2022-11-29T00:14:49.726Z,20.08
2022-11-29T00:19:51.472Z,15.52
2022-11-29T00:24:53.338Z,18.83
2022-11-29T00:29:55.077Z,18.50
2022-11-29T00:34:59.494Z,19.95
2022-11-29T00:40:01.721Z,19.45
2022-11-29T00:45:03.844Z,19.02
2022-11-29T00:50:06.901Z,19.23
2022-11-29T00:55:09.175Z,18.98
2022-11-29T01:00:11.502Z,18.05
2022-11-29T01:05:13.294Z,16.75
2022-11-29T01:10:15.076Z,17.40
2022-11-29T01:15:16.947Z,18.33
2022-11-29T01:20:18.998Z,18.38
2022-11-29T01:25:20.793Z,17.13
2022-11-29T01:30:22.583Z,17.08
2022-11-29T01:35:24.313Z,16.80
2022-11-29T01:40:26.062Z,16.33
2022-11-29T01:45:27.875Z,16.13
2022-11-29T01:50:29.739Z,17.85
2022-11-29T01:55:32.977Z,16.30
2022-11-29T02:00:35.930Z,18.70
2022-11-29T02:05:49.255Z,17.25
2022-11-29T02:11:11.150Z,16.15
2022-11-29T02:16:21.755Z,16.98
2022-11-29T02:21:47.141Z,14.75
2022-11-29T02:27:36.514Z,13.90
2022-11-29T02:33:03.169Z,15.20
2022-11-29T02:38:19.928Z,15.20
2022-11-29T02:43:46.472Z,15.60
2022-11-29T02:48:51.184Z,14.18
2022-11-29T02:54:23.886Z,13.45
2022-11-29T02:59:54.927Z,14.27
2022-11-29T03:05:24.969Z,14.10
2022-11-29T03:10:50.086Z,14.77
2022-11-29T03:16:03.493Z,15.57
2022-11-29T03:21:18.409Z,17.00
2022-11-29T03:31:44.491Z,16.75
2022-11-29T03:37:01.219Z,16.48
2022-11-29T03:42:08.529Z,15.88
2022-11-29T03:47:14.567Z,17.77
2022-11-29T03:52:32.128Z,18.58
2022-11-29T03:58:05.438Z,16.40
2022-11-29T04:03:41.292Z,15.15
2022-11-29T04:08:59.871Z,15.73
2022-11-29T04:14:13.669Z,14.65
2022-11-29T04:19:45.718Z,15.70
2022-11-29T04:25:07.746Z,16.13
2022-11-29T04:30:20.347Z,15.70
2022-11-29T04:35:38.812Z,17.15
2022-11-29T04:41:05.876Z,16.33
2022-11-29T04:46:32.106Z,15.27
2022-11-29T04:52:01.618Z,15.15
2022-11-29T04:57:17.065Z,14.32
2022-11-29T05:02:43.477Z,17.50
2022-11-29T05:07:53.000Z,22.77
2022-11-29T05:13:00.715Z,17.15
2022-11-29T05:18:28.570Z,16.73
2022-11-29T05:23:47.794Z,16.05
2022-11-29T05:29:10.186Z,15.25
2022-11-29T05:34:46.013Z,17.20
2022-11-29T05:40:25.761Z,18.15
2022-11-29T05:45:36.935Z,18.55
2022-11-29T05:50:47.442Z,16.27
2022-11-29T05:55:56.961Z,16.60
2022-11-29T06:01:07.665Z,16.77
2022-11-29T06:06:19.155Z,16.33
2022-11-29T06:11:36.208Z,17.40
2022-11-29T06:17:02.302Z,15.48
2022-11-29T06:22:10.072Z,16.40
2022-11-29T06:27:34.473Z,15.73
2022-11-29T06:32:45.340Z,15.98
2022-11-29T06:37:51.677Z,14.45
2022-11-29T06:42:53.459Z,19.98
2022-11-29T06:48:06.371Z,18.52
2022-11-29T06:53:26.694Z,16.10
2022-11-29T06:58:44.543Z,18.63
2022-11-29T07:04:13.198Z,18.17
2022-11-29T07:09:18.415Z,18.08
2022-11-29T07:14:20.544Z,19.55
2022-11-29T07:19:45.966Z,16.52
2022-11-29T07:25:02.082Z,17.42
2022-11-29T07:30:12.626Z,17.70
2022-11-29T07:35:17.338Z,17.08
2022-11-29T07:40:52.705Z,16.60
2022-11-29T07:45:56.068Z,16.85
2022-11-29T07:50:58.077Z,17.65
2022-11-29T07:55:59.887Z,17.67
2022-11-29T08:01:02.187Z,19.80
2022-11-29T08:06:04.449Z,16.80
2022-11-29T08:11:14.075Z,18.58
2022-11-29T08:16:17.858Z,18.30
2022-11-29T08:21:19.811Z,20.30
2022-11-29T08:26:24.465Z,18.63
2022-11-29T08:31:30.073Z,17.65
2022-11-29T08:36:32.111Z,15.77
2022-11-29T08:41:33.940Z,19.17
2022-11-29T08:46:54.285Z,18.15
2022-11-29T08:52:16.038Z,14.93
2022-11-29T08:57:39.982Z,17.02
2022-11-29T09:02:39.862Z,15.68
2022-11-29T09:07:42.057Z,16.00
2022-11-29T09:12:44.771Z,15.35
2022-11-29T09:17:46.626Z,15.02
2022-11-29T09:22:48.397Z,31.23
2022-11-29T09:27:50.241Z,17.45
2022-11-29T09:32:51.989Z,14.32
2022-11-29T09:37:53.745Z,15.05
2022-11-29T09:42:57.200Z,14.07
2022-11-29T09:48:24.493Z,16.70
2022-11-29T09:53:54.354Z,15.82
2022-11-29T09:59:07.371Z,13.93
2022-11-29T10:04:25.395Z,16.13
2022-11-29T10:09:47.428Z,16.23
2022-11-29T10:14:57.374Z,16.58
2022-11-29T10:20:06.233Z,13.88
2022-11-29T10:25:10.493Z,17.20
2022-11-29T10:30:15.281Z,17.17
2022-11-29T10:35:19.731Z,13.85
2022-11-29T10:40:30.102Z,14.00
2022-11-29T10:45:35.222Z,15.65
2022-11-29T10:50:37.619Z,13.05
2022-11-29T10:55:44.163Z,15.77
2022-11-29T11:01:07.469Z,15.10
2022-11-29T11:06:43.175Z,16.90
2022-11-29T11:11:51.945Z,15.18
2022-11-29T11:16:54.122Z,15.35
2022-11-29T11:21:57.923Z,15.30
2022-11-29T11:27:01.340Z,15.83
2022-11-29T11:32:04.971Z,13.48
2022-11-29T11:37:15.705Z,13.52
2022-11-29T11:42:38.660Z,12.55
2022-11-29T11:47:47.724Z,11.05
2022-11-29T11:52:53.847Z,14.20
2022-11-29T11:58:14.311Z,17.92
2022-11-29T12:03:35.288Z,16.70
2022-11-29T12:08:38.032Z,17.20
2022-11-29T12:13:48.024Z,17.77
2022-11-29T12:18:53.318Z,19.33
2022-11-29T12:24:04.031Z,19.63
2022-11-29T12:29:32.935Z,16.63
2022-11-29T12:34:56.657Z,17.92
2022-11-29T12:40:01.296Z,17.08
2022-11-29T12:50:34.925Z,14.25
2022-11-29T12:56:01.224Z,16.50
2022-11-29T13:01:23.477Z,15.50
2022-11-29T13:06:32.592Z,15.63
2022-11-29T13:11:39.789Z,15.60
2022-11-29T13:16:56.745Z,17.27
2022-11-29T13:22:57.150Z,17.52
2022-11-29T13:28:17.993Z,18.52
2022-11-29T13:33:40.588Z,16.33
2022-11-29T13:39:02.621Z,18.17
2022-11-29T13:44:32.241Z,21.00
2022-11-29T13:49:55.214Z,18.98
2022-11-29T13:55:12.058Z,21.40
2022-11-29T14:00:39.574Z,23.52
2022-11-29T14:05:41.396Z,24.27
2022-11-29T14:10:49.035Z,24.50
2022-11-29T14:16:01.856Z,22.13
2022-11-29T14:21:04.633Z,22.70
2022-11-29T14:26:06.373Z,24.58
2022-11-29T14:31:09.433Z,22.73
2022-11-29T14:36:29.946Z,25.55
2022-11-29T14:42:14.472Z,19.95
2022-11-29T14:47:24.893Z,21.17
2022-11-29T14:52:35.807Z,20.08
2022-11-29T14:57:49.806Z,18.45
2022-11-29T15:03:09.764Z,23.37
2022-11-29T15:08:26.697Z,17.00
2022-11-29T15:13:31.843Z,19.73
2022-11-29T15:19:01.755Z,22.48
2022-11-29T15:24:11.931Z,24.30
2022-11-29T15:29:19.717Z,21.67
2022-11-29T15:34:34.976Z,21.10
2022-11-29T15:39:37.647Z,19.45
2022-11-29T15:44:46.847Z,20.83
2022-11-29T15:49:49.987Z,22.80
2022-11-29T15:54:56.629Z,16.63
2022-11-29T16:00:02.203Z,19.98
2022-11-29T16:05:19.218Z,23.40
2022-11-29T16:10:26.443Z,21.25
2022-11-29T16:15:33.516Z,22.75
2022-11-29T16:20:35.331Z,19.17
2022-11-29T16:25:55.555Z,20.80
2022-11-29T16:30:58.423Z,17.85
2022-11-29T16:36:15.714Z,22.95
2022-11-29T16:41:32.694Z,22.77
2022-11-29T16:46:37.004Z,24.75
2022-11-29T16:51:48.157Z,22.92
2022-11-29T16:56:52.407Z,20.35
2022-11-29T17:01:55.035Z,16.58
2022-11-29T17:06:57.596Z,19.52
2022-11-29T17:12:01.783Z,18.42
2022-11-29T17:17:03.763Z,18.40
2022-11-29T17:22:05.522Z,20.27
2022-11-29T17:27:07.379Z,19.15
2022-11-29T17:32:09.182Z,16.85
2022-11-29T17:37:11.104Z,19.10
2022-11-29T17:42:12.898Z,20.05
2022-11-29T17:47:14.684Z,19.73
2022-11-29T17:52:16.448Z,21.60
2022-11-29T17:57:20.053Z,19.95
2022-11-29T18:02:22.086Z,18.47
2022-11-29T18:07:23.938Z,17.45
2022-11-29T18:12:25.697Z,17.10
2022-11-29T18:17:27.454Z,24.23
2022-11-29T18:22:29.186Z,19.70
2022-11-29T18:27:31.328Z,18.15
2022-11-29T18:32:33.203Z,17.92
2022-11-29T18:38:06.741Z,17.95
2022-11-29T18:42:56.684Z,18.25
2022-11-29T18:47:58.796Z,16.95
2022-11-29T18:53:00.639Z,15.48
2022-11-29T18:58:02.973Z,16.63
2022-11-29T19:03:04.836Z,17.25
2022-11-29T19:08:06.582Z,19.30
2022-11-29T19:13:08.378Z,17.35
2022-11-29T19:18:10.127Z,13.52
2022-11-29T19:23:11.954Z,15.13
2022-11-29T19:28:14.405Z,16.60
2022-11-29T19:33:16.361Z,16.95
2022-11-29T19:38:18.141Z,16.70
2022-11-29T19:43:19.998Z,13.27
2022-11-29T19:48:21.775Z,14.30
2022-11-29T19:53:23.550Z,16.48
2022-11-29T19:58:25.406Z,15.07
2022-11-29T20:03:30.100Z,16.38
2022-11-29T20:08:32.619Z,16.05
2022-11-29T20:13:34.495Z,14.88
2022-11-29T20:18:38.479Z,15.07
2022-11-29T20:23:41.371Z,15.18
2022-11-29T20:28:43.898Z,18.02
2022-11-29T20:33:46.513Z,17.98
2022-11-29T20:38:55.681Z,19.00
2022-11-29T20:44:01.811Z,15.68
2022-11-29T20:49:06.676Z,18.13
2022-11-29T20:54:13.399Z,18.27
2022-11-29T20:59:15.159Z,20.38
2022-11-29T21:04:22.886Z,18.70
2022-11-29T21:09:25.252Z,16.65
2022-11-29T21:14:27.146Z,16.85
2022-11-29T21:19:29.218Z,15.95
2022-11-29T21:24:49.681Z,16.60
2022-11-29T21:29:51.903Z,17.95
2022-11-29T21:34:53.707Z,18.63
2022-11-29T21:39:55.842Z,16.38
2022-11-29T21:44:57.603Z,16.45
2022-11-29T21:49:59.340Z,14.88
2022-11-29T21:55:01.153Z,17.73
2022-11-29T22:00:03.885Z,15.57
2022-11-29T22:05:07.887Z,17.40
2022-11-29T22:10:13.260Z,20.65
2022-11-29T22:15:19.076Z,21.80
2022-11-29T22:20:23.417Z,21.13
2022-11-29T22:25:25.208Z,22.08
2022-11-29T22:30:26.970Z,19.23
2022-11-29T22:35:28.732Z,21.70
2022-11-29T22:40:30.471Z,18.65
2022-11-29T22:45:32.189Z,17.95
2022-11-29T22:50:33.955Z,20.33
2022-11-29T22:55:35.703Z,20.30
2022-11-29T23:00:43.772Z,21.65
2022-11-29T23:05:45.732Z,20.15
2022-11-29T23:10:57.723Z,16.70
2022-11-29T23:16:00.852Z,20.70
2022-11-29T23:21:06.423Z,18.40
2022-11-29T23:26:09.318Z,16.92
2022-11-29T23:31:11.503Z,15.30
2022-11-29T23:36:14.274Z,15.02
2022-11-29T23:41:16.500Z,16.02
2022-11-29T23:46:24.038Z,15.98
2022-11-29T23:51:25.872Z,15.07
2022-11-29T23:56:27.689Z,14.65
